Time;durP1;ratioP1;P1;durP2;ratioP2;P2;SDS_P1;SDS_P2;PMS_P1;PMS_P2;Temp;Humidity;BMP_temperature;BMP_pressure;BME280_temperature;BME280_humidity;BME280_pressure;Samples;Min_cycle;Max_cycle;Signal;HPM_P1;HPM_P2
2023/09/25 00:01:03;;;;;;;1999.90;999.90;;;7.60;99.90;;;;;;5076229;28;20036;-74
2023/09/25 00:03:28;;;;;;;1999.90;999.90;;;7.50;99.90;;;;;;5076739;28;20037;-74
2023/09/25 00:05:56;;;;;;;1999.90;999.90;;;7.50;99.90;;;;;;5074832;28;20037;-75
2023/09/25 00:08:22;;;;;;;1999.90;999.90;;;7.50;99.90;;;;;;5074971;28;20453;-75
2023/09/25 00:10:48;;;;;;;1999.90;999.90;;;7.50;99.90;;;;;;5076567;28;20041;-75
2023/09/25 00:13:13;;;;;;;1999.90;999.90;;;7.50;99.90;;;;;;5074999;28;20049;-75
2023/09/25 00:15:46;;;;;;;1999.90;999.90;;;7.50;99.90;;;;;;5076421;28;20044;-75
2023/09/25 00:18:16;;;;;;;1999.90;999.90;;;7.40;99.90;;;;;;5076353;28;20029;-75
2023/09/25 00:20:42;;;;;;;1999.90;999.90;;;7.40;99.90;;;;;;5075567;28;20469;-75
2023/09/25 00:23:08;;;;;;;1999.90;999.90;;;7.40;99.90;;;;;;5076414;28;20033;-75
2023/09/25 00:25:33;;;;;;;1999.90;999.90;;;7.40;99.90;;;;;;5076280;28;20406;-75
2023/09/25 00:28:00;;;;;;;1999.90;999.90;;;7.40;99.90;;;;;;5076088;28;20033;-75
2023/09/25 00:30:26;;;;;;;1999.90;999.90;;;7.40;99.90;;;;;;5075128;28;20033;-75
2023/09/25 00:32:52;;;;;;;1999.90;999.90;;;7.30;99.90;;;;;;5076126;28;20029;-75
2023/09/25 00:35:19;;;;;;;1999.90;999.90;;;7.40;99.90;;;;;;5076253;28;20116;-75
2023/09/25 00:37:46;;;;;;;1999.90;999.90;;;7.30;99.90;;;;;;5074380;28;20036;-75
2023/09/25 00:40:17;;;;;;;1999.90;999.90;;;7.30;99.90;;;;;;5075857;28;20041;-75
2023/09/25 00:42:48;;;;;;;1999.90;999.90;;;7.30;99.90;;;;;;5076200;28;20025;-75
2023/09/25 00:45:14;;;;;;;1999.90;999.90;;;7.40;99.90;;;;;;5076137;28;20478;-74
2023/09/25 00:47:41;;;;;;;1999.90;999.90;;;7.40;99.90;;;;;;5075740;28;20029;-75
2023/09/25 00:50:08;;;;;;;1999.90;999.90;;;7.30;99.90;;;;;;5075490;28;20041;-75
2023/09/25 00:52:34;;;;;;;1999.90;999.90;;;7.30;99.90;;;;;;5076012;28;20782;-75
2023/09/25 00:55:01;;;;;;;1999.90;999.90;;;7.20;99.90;;;;;;5075696;28;20076;-76
2023/09/25 00:57:27;;;;;;;1999.90;999.90;;;7.30;99.90;;;;;;5074008;28;20029;-75
2023/09/25 00:59:53;;;;;;;1999.90;999.90;;;7.30;99.90;;;;;;5075144;28;20529;-75
2023/09/25 01:02:19;;;;;;;1999.90;999.90;;;7.30;99.90;;;;;;5075585;28;20084;-75
2023/09/25 01:04:45;;;;;;;1999.90;999.90;;;7.30;99.90;;;;;;5075455;28;20032;-75
2023/09/25 01:07:10;;;;;;;1999.90;999.90;;;7.20;99.90;;;;;;5075486;28;20029;-75
2023/09/25 01:09:36;;;;;;;1999.90;999.90;;;7.20;99.90;;;;;;5075474;28;20033;-75
2023/09/25 01:12:01;;;;;;;1999.90;999.90;;;7.30;99.90;;;;;;5075604;28;20056;-75
2023/09/25 01:14:27;;;;;;;1999.90;999.90;;;7.30;99.90;;;;;;5075619;28;20029;-74
2023/09/25 01:16:53;;;;;;;1999.90;999.90;;;7.30;99.90;;;;;;5075350;28;20398;-75
2023/09/25 01:19:18;;;;;;;1999.90;999.90;;;7.20;99.90;;;;;;5074197;28;20111;-75
2023/09/25 01:21:47;;;;;;;1999.90;999.90;;;7.30;99.90;;;;;;5075427;28;20087;-76
2023/09/25 01:24:13;;;;;;;1999.90;999.90;;;7.30;99.90;;;;;;5073907;28;20033;-75
2023/09/25 01:26:38;;;;;;;1999.90;999.90;;;7.20;99.90;;;;;;5075101;28;20037;-76
2023/09/25 01:29:04;;;;;;;1999.90;999.90;;;7.20;99.90;;;;;;5075258;28;20103;-74
2023/09/25 01:31:29;;;;;;;1999.90;999.90;;;7.20;99.90;;;;;;5073737;28;20072;-75
2023/09/25 01:33:55;;;;;;;1999.90;999.90;;;7.20;99.90;;;;;;5073815;28;20036;-75
2023/09/25 01:36:20;;;;;;;1999.90;999.90;;;7.20;99.90;;;;;;5075088;28;20061;-75
2023/09/25 01:38:47;;;;;;;1999.90;999.90;;;7.10;99.90;;;;;;5073706;28;20033;-75
2023/09/25 01:41:14;;;;;;;1999.90;999.90;;;7.10;99.90;;;;;;5073954;28;20033;-75
2023/09/25 01:43:43;;;;;;;1999.90;999.90;;;7.10;99.90;;;;;;5074951;28;20032;-75
2023/09/25 01:46:09;;;;;;;1999.90;999.90;;;7.10;99.90;;;;;;5074591;28;20047;-75
2023/09/25 01:48:35;;;;;;;1999.90;999.90;;;7.10;99.90;;;;;;5075140;28;20025;-75
2023/09/25 01:51:08;;;;;;;1999.90;999.90;;;7.10;99.90;;;;;;5073278;28;20153;-75
2023/09/25 01:53:35;;;;;;;1999.90;999.90;;;7.10;99.90;;;;;;5075181;28;20029;-75
2023/09/25 01:56:09;;;;;;;1999.90;999.90;;;7.10;99.90;;;;;;5074665;28;20032;-75
2023/09/25 01:58:35;;;;;;;1999.90;999.90;;;7.00;99.90;;;;;;5075095;28;20029;-75
2023/09/25 02:01:00;;;;;;;1999.90;999.90;;;7.00;99.90;;;;;;5074998;28;20037;-74
2023/09/25 02:03:26;;;;;;;1999.90;999.90;;;7.00;99.90;;;;;;5074951;28;20111;-75
2023/09/25 02:05:56;;;;;;;1999.90;999.90;;;7.00;99.90;;;;;;5073042;28;20087;-76
2023/09/25 02:08:21;;;;;;;1999.90;999.90;;;7.00;99.90;;;;;;5073252;28;20101;-75
2023/09/25 02:10:47;;;;;;;1999.90;999.90;;;7.00;99.90;;;;;;5074538;28;20507;-74
2023/09/25 02:13:12;;;;;;;1999.90;999.90;;;7.10;99.90;;;;;;5074699;28;20429;-75
2023/09/25 02:15:38;;;;;;;1999.90;999.90;;;7.00;99.90;;;;;;5074697;28;20402;-75
2023/09/25 02:18:08;;;;;;;1999.90;999.90;;;7.00;99.90;;;;;;5074636;28;20394;-74
2023/09/25 02:20:34;;;;;;;1999.90;999.90;;;6.90;99.90;;;;;;5073816;28;20028;-75
2023/09/25 02:23:00;;;;;;;1999.90;999.90;;;7.00;99.90;;;;;;5074770;28;20104;-75
2023/09/25 02:25:25;;;;;;;1999.90;999.90;;;7.00;99.90;;;;;;5074613;28;20487;-75
2023/09/25 02:27:51;;;;;;;1999.90;999.90;;;6.90;99.90;;;;;;5074441;28;20041;-74
2023/09/25 02:30:16;;;;;;;1999.90;999.90;;;6.90;99.90;;;;;;5074229;28;20491;-75
2023/09/25 02:32:43;;;;;;;1999.90;999.90;;;6.90;99.90;;;;;;5074523;28;20087;-75
2023/09/25 02:35:10;;;;;;;1999.90;999.90;;;6.90;99.90;;;;;;5074242;28;20040;-75
2023/09/25 02:37:37;;;;;;;1999.90;999.90;;;6.80;99.90;;;;;;5074174;28;20030;-74
2023/09/25 02:40:04;;;;;;;1999.90;999.90;;;6.80;99.90;;;;;;5074343;28;20111;-75
2023/09/25 02:42:30;;;;;;;1999.90;999.90;;;6.80;99.90;;;;;;5074413;28;20128;-75
2023/09/25 02:44:56;;;;;;;1999.90;999.90;;;6.90;99.90;;;;;;5073027;28;20043;-75
2023/09/25 02:47:21;;;;;;;1999.90;999.90;;;6.90;99.90;;;;;;5074106;28;20099;-75
2023/09/25 02:49:47;;;;;;;1999.90;999.90;;;6.90;99.90;;;;;;5074113;28;20025;-75
2023/09/25 02:52:12;;;;;;;1999.90;999.90;;;6.90;99.90;;;;;;5073200;28;20049;-75
2023/09/25 02:54:38;;;;;;;1999.90;999.90;;;6.90;99.90;;;;;;5077832;28;20040;-75
2023/09/25 02:57:03;;;;;;;1999.90;999.90;;;6.80;99.90;;;;;;5077598;28;20033;-75
2023/09/25 02:59:29;;;;;;;1999.90;999.90;;;6.80;99.90;;;;;;5077386;28;20061;-75
2023/09/25 03:01:54;;;;;;;1999.90;999.90;;;6.80;99.90;;;;;;5076212;28;20395;-74
2023/09/25 03:04:21;;;;;;;1999.90;999.90;;;6.80;99.90;;;;;;5076283;28;20058;-75
2023/09/25 03:06:47;;;;;;;1999.90;999.90;;;6.80;99.90;;;;;;5075801;28;20140;-75
2023/09/25 03:09:12;;;;;;;1999.90;999.90;;;6.70;99.90;;;;;;5077088;28;20120;-75
2023/09/25 03:11:38;;;;;;;1999.90;999.90;;;6.70;99.90;;;;;;5077620;28;20033;-75
2023/09/25 03:14:04;;;;;;;1999.90;999.90;;;6.70;99.90;;;;;;5077621;28;20020;-75
2023/09/25 03:16:30;;;;;;;1999.90;999.90;;;6.70;99.90;;;;;;5077215;28;20033;-75
2023/09/25 03:18:56;;;;;;;1999.90;999.90;;;6.60;99.90;;;;;;5077280;28;20025;-75
2023/09/25 03:21:22;;;;;;;1999.90;999.90;;;6.60;99.90;;;;;;5077633;28;20072;-75
2023/09/25 03:23:47;;;;;;;1999.90;999.90;;;6.60;99.90;;;;;;5077159;28;20723;-75
2023/09/25 03:26:17;;;;;;;1999.90;999.90;;;6.60;99.90;;;;;;5077001;28;20541;-75
2023/09/25 03:28:43;;;;;;;1999.90;999.90;;;6.60;99.90;;;;;;5077052;28;20112;-74
2023/09/25 03:31:10;;;;;;;1999.90;999.90;;;6.60;99.90;;;;;;5075596;28;20040;-75
2023/09/25 03:33:36;;;;;;;1999.90;999.90;;;6.60;99.90;;;;;;5077267;28;20032;-75
2023/09/25 03:36:03;;;;;;;1999.90;999.90;;;6.60;99.90;;;;;;5075435;28;20115;-75
2023/09/25 03:38:29;;;;;;;1999.90;999.90;;;6.60;99.90;;;;;;5077210;28;20491;-75
2023/09/25 03:40:55;;;;;;;1999.90;999.90;;;6.60;99.90;;;;;;5075424;28;20056;-74
2023/09/25 03:43:20;;;;;;;1999.90;999.90;;;6.60;99.90;;;;;;5077159;28;20036;-75
2023/09/25 03:45:47;;;;;;;1999.90;999.90;;;6.60;99.90;;;;;;5075083;28;20049;-75
2023/09/25 03:48:12;;;;;;;1999.90;999.90;;;6.70;99.90;;;;;;5076925;28;20029;-75
2023/09/25 03:50:38;;;;;;;1999.90;999.90;;;6.70;99.90;;;;;;5076623;28;20041;-75
2023/09/25 03:53:03;;;;;;;1999.90;999.90;;;6.60;99.90;;;;;;5076712;28;20060;-74
2023/09/25 03:55:29;;;;;;;1999.90;999.90;;;6.50;99.90;;;;;;5075297;28;20095;-75
2023/09/25 03:57:55;;;;;;;1999.90;999.90;;;6.50;99.90;;;;;;5076595;28;20029;-75
2023/09/25 04:00:21;;;;;;;1999.90;999.90;;;6.50;99.90;;;;;;5074777;28;20033;-74
2023/09/25 04:02:46;;;;;;;1999.90;999.90;;;6.60;99.90;;;;;;5075324;28;20029;-75
2023/09/25 04:05:12;;;;;;;1999.90;999.90;;;6.60;99.90;;;;;;5073982;28;20045;-74
2023/09/25 04:07:38;;;;;;;1999.90;999.90;;;6.60;99.90;;;;;;5076387;28;20133;-74
2023/09/25 04:10:06;;;;;;;1999.90;999.90;;;6.60;99.90;;;;;;5076494;28;20108;-75
2023/09/25 04:12:32;;;;;;;1999.90;999.90;;;6.60;99.90;;;;;;5075117;28;20099;-75
2023/09/25 04:14:58;;;;;;;1999.90;999.90;;;6.50;99.90;;;;;;5076568;28;20037;-74
2023/09/25 04:17:24;;;;;;;1999.90;999.90;;;6.50;99.90;;;;;;5076184;28;20437;-75
2023/09/25 04:19:50;;;;;;;1999.90;999.90;;;6.50;99.90;;;;;;5076383;28;20033;-74
2023/09/25 04:22:16;;;;;;;1999.90;999.90;;;6.50;99.90;;;;;;5076461;28;20025;-74
2023/09/25 04:24:42;;;;;;;1999.90;999.90;;;6.50;99.90;;;;;;5076469;28;20044;-74
2023/09/25 04:27:09;;;;;;;1999.90;999.90;;;6.50;99.90;;;;;;5076056;28;20179;-75
2023/09/25 04:29:36;;;;;;;1999.90;999.90;;;6.50;99.90;;;;;;5076097;28;20029;-74
2023/09/25 04:32:03;;;;;;;1999.90;999.90;;;6.60;99.90;;;;;;5076501;28;20037;-75
2023/09/25 04:34:29;;;;;;;1999.90;999.90;;;6.50;99.90;;;;;;5076203;28;20060;-75
2023/09/25 04:36:55;;;;;;;1999.90;999.90;;;6.50;99.90;;;;;;5075020;28;20057;-75
2023/09/25 04:39:20;;;;;;;1999.90;999.90;;;6.40;99.90;;;;;;5076035;28;20041;-74
2023/09/25 04:41:47;;;;;;;1999.90;999.90;;;6.40;99.90;;;;;;5075307;28;20048;-75
2023/09/25 04:44:13;;;;;;;1999.90;999.90;;;6.40;99.90;;;;;;5075675;28;20037;-74
2023/09/25 04:46:39;;;;;;;1999.90;999.90;;;6.40;99.90;;;;;;5075451;28;20029;-77
2023/09/25 04:49:08;;;;;;;1999.90;999.90;;;6.30;99.90;;;;;;5076069;28;20035;-76
2023/09/25 04:51:34;;;;;;;1999.90;999.90;;;6.30;99.90;;;;;;5064512;28;20033;-74
2023/09/25 04:54:00;;;;;;;1999.90;999.90;;;6.30;99.90;;;;;;5075943;28;20398;-77
2023/09/25 04:56:29;;;;;;;1999.90;999.90;;;6.30;99.90;;;;;;5075566;28;20499;-74
2023/09/25 04:58:55;;;;;;;1999.90;999.90;;;6.20;99.90;;;;;;5074133;28;20025;-77
2023/09/25 05:01:21;;;;;;;1999.90;999.90;;;6.20;99.90;;;;;;5075385;28;20552;-76
2023/09/25 05:03:47;;;;;;;1999.90;999.90;;;6.30;99.90;;;;;;5074208;28;20060;-75
2023/09/25 05:06:12;;;;;;;1999.90;999.90;;;6.20;99.90;;;;;;5075392;28;20120;-77
2023/09/25 05:08:38;;;;;;;1999.90;999.90;;;6.20;99.90;;;;;;5076017;28;20028;-77
2023/09/25 05:11:07;;;;;;;1999.90;999.90;;;6.20;99.90;;;;;;5075697;28;20029;-77
2023/09/25 05:13:33;;;;;;;1999.90;999.90;;;6.20;99.90;;;;;;5075428;28;20071;-76
2023/09/25 05:16:00;;;;;;;1999.90;999.90;;;6.20;99.90;;;;;;5075029;28;20029;-76
2023/09/25 05:18:26;;;;;;;1999.90;999.90;;;6.20;99.90;;;;;;5075598;28;20040;-76
2023/09/25 05:20:51;;;;;;;1999.90;999.90;;;6.10;99.90;;;;;;5075157;28;20040;-76
2023/09/25 05:23:18;;;;;;;1999.90;999.90;;;6.20;99.90;;;;;;5073849;28;20029;-76
2023/09/25 05:25:44;;;;;;;1999.90;999.90;;;6.10;99.90;;;;;;5072784;28;20044;-75
2023/09/25 05:28:10;;;;;;;1999.90;999.90;;;6.10;99.90;;;;;;5073799;28;20441;-76
2023/09/25 05:30:35;;;;;;;1999.90;999.90;;;6.00;99.90;;;;;;5075002;28;20486;-74
2023/09/25 05:33:01;;;;;;;1999.90;999.90;;;6.00;99.90;;;;;;5074040;28;20508;-76
2023/09/25 05:35:26;;;;;;;1999.90;999.90;;;6.00;99.90;;;;;;5072684;28;20029;-76
2023/09/25 05:37:52;;;;;;;1999.90;999.90;;;6.10;99.90;;;;;;5074115;28;20079;-76
2023/09/25 05:40:18;;;;;;;1999.90;999.90;;;6.20;99.90;;;;;;5075103;28;20116;-75
2023/09/25 05:42:45;;;;;;;1999.90;999.90;;;6.20;99.90;;;;;;5076343;28;20040;-76
2023/09/25 05:45:13;;;;;;;1999.90;999.90;;;6.20;99.90;;;;;;5095218;28;20037;-76
2023/09/25 05:47:38;;;;;;;1999.90;999.90;;;6.10;99.90;;;;;;5078976;28;20129;-75
2023/09/25 05:50:07;;;;;;;1999.90;999.90;;;6.20;99.90;;;;;;5072188;28;20132;-76
2023/09/25 05:52:34;;;;;;;1999.90;999.90;;;6.20;99.90;;;;;;5070629;28;20084;-76
2023/09/25 05:55:01;;;;;;;1999.90;999.90;;;6.30;99.90;;;;;;5070868;28;20040;-76
2023/09/25 05:57:26;;;;;;;1999.90;999.90;;;6.40;99.90;;;;;;5071253;28;20078;-76
2023/09/25 05:59:52;;;;;;;1999.90;999.90;;;6.40;99.90;;;;;;5073225;28;20106;-76
2023/09/25 06:02:18;;;;;;;1999.90;999.90;;;6.40;99.90;;;;;;5071790;28;20033;-76
2023/09/25 06:04:43;;;;;;;1999.90;999.90;;;6.50;99.90;;;;;;5070532;28;20037;-77
2023/09/25 06:07:09;;;;;;;1999.90;999.90;;;6.50;99.90;;;;;;5073170;28;20571;-77
2023/09/25 06:09:35;;;;;;;1999.90;999.90;;;6.60;99.90;;;;;;5073045;28;20029;-77
2023/09/25 06:12:01;;;;;;;1999.90;999.90;;;6.70;99.90;;;;;;5074428;28;20037;-77
2023/09/25 06:14:30;;;;;;;1999.90;999.90;;;6.80;99.90;;;;;;5074602;28;20029;-77
2023/09/25 06:16:57;;;;;;;1999.90;999.90;;;6.80;99.90;;;;;;5072911;28;20037;-77
2023/09/25 06:19:24;;;;;;;1999.90;999.90;;;6.80;99.90;;;;;;5074305;28;20025;-77
2023/09/25 06:21:50;;;;;;;1999.90;999.90;;;6.90;99.90;;;;;;5074642;28;20059;-76
2023/09/25 06:24:16;;;;;;;1999.90;999.90;;;6.90;99.90;;;;;;5074619;28;20032;-76
2023/09/25 06:26:46;;;;;;;1999.90;999.90;;;7.00;99.90;;;;;;5077422;28;20045;-77
2023/09/25 06:29:13;;;;;;;1999.90;999.90;;;7.10;99.90;;;;;;5097769;28;20035;-77
2023/09/25 06:31:39;;;;;;;1999.90;999.90;;;7.10;99.90;;;;;;5082587;28;20418;-78
2023/09/25 06:34:07;;;;;;;1999.90;999.90;;;7.10;99.90;;;;;;5078163;28;20044;-78
2023/09/25 06:36:33;;;;;;;1999.90;999.90;;;7.20;99.90;;;;;;5077746;28;20083;-77
2023/09/25 06:38:59;;;;;;;1999.90;999.90;;;7.30;99.90;;;;;;5076309;28;20083;-78
2023/09/25 06:41:24;;;;;;;1999.90;999.90;;;7.40;99.90;;;;;;5076571;28;20368;-78
2023/09/25 06:43:51;;;;;;;1999.90;999.90;;;7.50;99.90;;;;;;5078026;28;20025;-77
2023/09/25 06:46:16;;;;;;;1999.90;999.90;;;7.50;99.90;;;;;;5076264;28;20065;-77
2023/09/25 06:48:42;;;;;;;1999.90;999.90;;;7.60;99.90;;;;;;5077924;28;20055;-77
2023/09/25 06:51:07;;;;;;;1999.90;999.90;;;7.70;99.90;;;;;;5075972;28;20040;-77
2023/09/25 06:53:33;;;;;;;1999.90;999.90;;;7.80;99.90;;;;;;5077773;28;20037;-77
2023/09/25 06:55:58;;;;;;;1999.90;999.90;;;7.90;99.90;;;;;;5076070;28;20040;-78
2023/09/25 06:58:27;;;;;;;1999.90;999.90;;;8.00;99.90;;;;;;5077762;28;20029;-77
2023/09/25 07:00:53;;;;;;;1999.90;999.90;;;8.10;99.90;;;;;;5079432;28;20037;-77
2023/09/25 07:03:18;;;;;;;1999.90;999.90;;;8.20;99.90;;;;;;5084691;28;20044;-77
2023/09/25 07:05:44;;;;;;;1999.90;999.90;;;8.30;99.90;;;;;;5092632;28;20040;-77
2023/09/25 07:08:11;;;;;;;1999.90;999.90;;;8.40;99.90;;;;;;5094737;28;20039;-78
2023/09/25 07:10:37;;;;;;;1999.90;999.90;;;8.60;99.90;;;;;;5083316;28;20067;-77
2023/09/25 07:13:03;;;;;;;1999.90;999.90;;;8.70;99.90;;;;;;5096162;28;20517;-77
2023/09/25 07:15:30;;;;;;;1999.90;999.90;;;8.90;99.90;;;;;;5097679;28;20048;-77
2023/09/25 07:17:56;;;;;;;1999.90;999.90;;;9.10;99.90;;;;;;5096191;28;20031;-78
2023/09/25 07:20:21;;;;;;;1999.90;999.90;;;9.10;99.90;;;;;;5097518;28;20047;-77
2023/09/25 07:22:47;;;;;;;1999.90;999.90;;;9.30;99.90;;;;;;5078883;28;20494;-78
2023/09/25 07:25:13;;;;;;;1999.90;999.90;;;9.40;99.90;;;;;;5083317;28;20134;-77
2023/09/25 07:27:39;;;;;;;1999.90;999.90;;;9.50;99.90;;;;;;5097610;28;20462;-77
2023/09/25 07:30:05;;;;;;;1999.90;999.90;;;9.70;99.90;;;;;;5095832;28;20032;-77
2023/09/25 07:32:32;;;;;;;1999.90;999.90;;;9.70;99.90;;;;;;5096068;28;20052;-78
2023/09/25 07:34:58;;;;;;;1999.90;999.90;;;9.80;99.90;;;;;;5090803;28;20032;-78
2023/09/25 07:37:23;;;;;;;1999.90;999.90;;;9.90;99.90;;;;;;5085011;28;20036;-78
2023/09/25 07:39:49;;;;;;;1999.90;999.90;;;10.00;99.90;;;;;;5095784;28;20486;-78
2023/09/25 07:42:15;;;;;;;1999.90;999.90;;;10.10;99.90;;;;;;5095360;28;20039;-77
2023/09/25 07:44:42;;;;;;;1999.90;999.90;;;10.30;99.90;;;;;;5078082;28;20083;-78
2023/09/25 07:47:12;;;;;;;1999.90;999.90;;;10.40;99.90;;;;;;5076678;28;20059;-78
2023/09/25 07:49:44;;;;;;;1999.90;999.90;;;10.60;99.90;;;;;;5076435;28;20040;-78
2023/09/25 07:52:16;;;;;;;1999.90;999.90;;;10.80;99.90;;;;;;5076981;28;20520;-78
2023/09/25 07:54:46;;;;;;;1999.90;999.90;;;10.90;99.90;;;;;;5055170;28;20107;-78
2023/09/25 07:57:16;;;;;;;1999.90;999.90;;;11.10;99.90;;;;;;5071652;28;20120;-77
2023/09/25 07:59:42;;;;;;;1999.90;999.90;;;11.20;99.90;;;;;;5081831;22;20053;-74
2023/09/25 08:02:08;;;;;;;1999.90;999.90;;;11.30;99.90;;;;;;5075347;28;20045;-75
2023/09/25 08:04:35;;;;;;;1999.90;999.90;;;11.40;99.90;;;;;;5086190;28;20033;-73
2023/09/25 08:07:02;;;;;;;1999.90;999.90;;;11.60;99.90;;;;;;5084304;28;20037;-73
2023/09/25 08:09:28;;;;;;;1999.90;999.90;;;11.80;99.90;;;;;;5076784;28;20037;-73
2023/09/25 08:11:53;;;;;;;1999.90;999.90;;;11.90;99.90;;;;;;5076521;28;20091;-72
2023/09/25 08:14:19;;;;;;;1999.90;999.90;;;12.10;99.90;;;;;;5076578;28;20048;-72
2023/09/25 08:16:45;;;;;;;1999.90;999.90;;;12.20;99.90;;;;;;5075980;28;20037;-72
2023/09/25 08:19:10;;;;;;;1999.90;999.90;;;12.30;99.90;;;;;;5076507;28;20044;-73
2023/09/25 08:21:36;;;;;;;1999.90;999.90;;;12.50;99.90;;;;;;5074393;28;20079;-72
2023/09/25 08:24:02;;;;;;;1999.90;999.90;;;12.60;99.90;;;;;;5076024;28;20043;-73
2023/09/25 08:26:29;;;;;;;1999.90;999.90;;;12.80;99.90;;;;;;5075775;28;20037;-73
2023/09/25 08:28:57;;;;;;;1999.90;999.90;;;12.90;99.90;;;;;;5076076;28;20486;-73
2023/09/25 08:31:23;;;;;;;1999.90;999.90;;;13.10;99.90;;;;;;5076128;28;20523;-73
2023/09/25 08:33:49;;;;;;;1999.90;999.90;;;13.30;99.90;;;;;;5076132;28;20107;-73
2023/09/25 08:36:14;;;;;;;1999.90;999.90;;;13.50;99.90;;;;;;5076044;28;20096;-73
2023/09/25 08:38:40;;;;;;;1999.90;999.90;;;13.60;99.90;;;;;;5076249;28;20072;-73
2023/09/25 08:41:05;;;;;;;1999.90;999.90;;;13.80;99.90;;;;;;5075857;28;20065;-73
2023/09/25 08:43:32;;;;;;;1999.90;999.90;;;14.00;99.90;;;;;;5076268;28;20053;-73
2023/09/25 08:45:58;;;;;;;1999.90;999.90;;;14.10;99.90;;;;;;5074218;28;20037;-75
2023/09/25 08:48:24;;;;;;;1999.90;999.90;;;14.30;99.90;;;;;;5075699;28;20567;-74
2023/09/25 08:50:50;;;;;;;1999.90;999.90;;;14.50;99.90;;;;;;5075687;28;20098;-74
2023/09/25 08:53:16;;;;;;;1999.90;999.90;;;14.60;99.90;;;;;;5074540;28;20028;-74
2023/09/25 08:55:43;;;;;;;1999.90;999.90;;;14.70;99.90;;;;;;5057113;28;20069;-74
2023/09/25 08:58:09;;;;;;;1999.90;999.90;;;14.80;99.90;;;;;;5056656;28;20511;-74
2023/09/25 09:00:35;;;;;;;1999.90;999.90;;;14.90;99.90;;;;;;5075523;28;20493;-75
2023/09/25 09:03:01;;;;;;;1999.90;999.90;;;15.00;99.90;;;;;;5061578;28;20037;-75
2023/09/25 09:05:26;;;;;;;1999.90;999.90;;;15.10;99.90;;;;;;5056686;28;20038;-75
2023/09/25 09:08:06;;;;;;;1999.90;999.90;;;15.30;99.90;;;;;;5074470;28;20459;-75
2023/09/25 09:10:36;;;;;;;1999.90;999.90;;;15.30;99.90;;;;;;5072956;28;20040;-75
2023/09/25 09:13:08;;;;;;;1999.90;999.90;;;15.40;99.90;;;;;;5075793;28;20112;-75
2023/09/25 09:15:34;;;;;;;1999.90;999.90;;;15.60;99.90;;;;;;5075697;28;20031;-75
2023/09/25 09:18:20;;;;;;;1999.90;999.90;;;15.80;99.90;;;;;;5074976;28;20035;-75
2023/09/25 09:20:46;;;;;;;1999.90;999.90;;;15.90;99.90;;;;;;5075318;28;20033;-75
2023/09/25 09:23:11;;;;;;;1999.90;999.90;;;16.10;99.90;;;;;;5061039;28;20475;-75
2023/09/25 09:25:37;;;;;;;1999.90;999.90;;;16.20;99.90;;;;;;5064168;28;20084;-75
2023/09/25 09:28:05;;;;;;;1999.90;999.90;;;16.30;99.90;;;;;;5074770;28;20040;-75
2023/09/25 09:30:32;;;;;;;1999.90;999.90;;;16.40;99.90;;;;;;5074614;28;20116;-75
2023/09/25 09:32:58;;;;;;;1999.90;999.90;;;16.70;99.90;;;;;;5073358;28;20494;-75
2023/09/25 09:35:27;;;;;;;1999.90;999.90;;;16.80;99.90;;;;;;5074826;28;20052;-74
2023/09/25 09:37:54;;;;;;;1999.90;999.90;;;16.90;99.90;;;;;;5072858;28;20091;-74
2023/09/25 09:40:21;;;;;;;1999.90;999.90;;;17.00;99.90;;;;;;5074558;28;20125;-75
2023/09/25 09:42:49;;;;;;;1999.90;999.90;;;17.10;99.90;;;;;;5074688;28;20056;-76
2023/09/25 09:45:15;;;;;;;1999.90;999.90;;;17.10;99.90;;;;;;5074593;28;20059;-76
2023/09/25 09:47:45;;;;;;;1999.90;999.90;;;17.10;99.90;;;;;;5074273;28;20092;-75
2023/09/25 09:50:19;;;;;;;1999.90;999.90;;;17.20;99.90;;;;;;5072650;28;20099;-74
2023/09/25 09:52:45;;;;;;;1999.90;999.90;;;17.30;99.90;;;;;;5074812;28;20037;-75
2023/09/25 09:55:13;;;;;;;1999.90;999.90;;;17.40;99.90;;;;;;5064683;28;20653;-75
2023/09/25 09:57:39;;;;;;;1999.90;999.90;;;17.30;99.90;;;;;;5044440;28;20037;-75
2023/09/25 10:00:06;;;;;;;1999.90;999.90;;;17.40;99.90;;;;;;5057350;28;20112;-75
2023/09/25 10:02:32;;;;;;;1999.90;999.90;;;17.50;99.90;;;;;;5050891;28;20213;-75
2023/09/25 10:04:58;;;;;;;1999.90;999.90;;;17.60;99.90;;;;;;5054783;28;20104;-74
2023/09/25 10:07:25;;;;;;;1999.90;999.90;;;17.60;99.90;;;;;;5054249;28;20052;-74
2023/09/25 10:10:05;;;;;;;1999.90;999.90;;;17.70;99.90;;;;;;5054214;28;20030;-74
2023/09/25 10:12:50;;;;;;;1999.90;999.90;;;17.90;99.90;;;;;;5053996;28;20037;-74
2023/09/25 10:15:24;;;;;;;1999.90;999.90;;;18.10;99.90;;;;;;5054931;28;20026;-74
2023/09/25 10:17:49;;;;;;;1999.90;999.90;;;18.20;99.90;;;;;;5054160;28;20033;-75
2023/09/25 10:20:36;;;;;;;1999.90;999.90;;;18.30;99.90;;;;;;5054135;28;20033;-74
2023/09/25 10:23:07;;;;;;;1999.90;999.90;;;18.30;99.90;;;;;;5054537;28;20053;-74
2023/09/25 10:25:54;;;;;;;1999.90;999.90;;;18.40;99.90;;;;;;5054155;28;20038;-74
2023/09/25 10:28:32;;;;;;;1999.90;999.90;;;18.60;99.90;;;;;;5054661;28;20839;-75
2023/09/25 10:31:02;;;;;;;1999.90;999.90;;;18.80;99.90;;;;;;5050000;28;20041;-75
2023/09/25 10:33:37;;;;;;;1999.90;999.90;;;18.90;99.90;;;;;;5053230;28;20958;-75
2023/09/25 10:36:04;;;;;;;1999.90;999.90;;;18.90;99.90;;;;;;5051804;28;20049;-75
2023/09/25 10:38:33;;;;;;;1999.90;999.90;;;19.10;99.90;;;;;;5052806;28;20041;-75
2023/09/25 10:41:06;;;;;;;1999.90;999.90;;;19.30;99.90;;;;;;5051331;28;20034;-75
2023/09/25 10:43:33;;;;;;;1999.90;999.90;;;19.10;99.90;;;;;;5053805;28;20461;-75
2023/09/25 10:45:59;;;;;;;1999.90;999.90;;;19.20;99.90;;;;;;5053900;28;20041;-75
2023/09/25 10:48:27;;;;;;;1999.90;999.90;;;19.40;99.90;;;;;;5054241;28;20034;-75
2023/09/25 10:50:53;;;;;;;1999.90;999.90;;;19.50;99.90;;;;;;5053788;28;20454;-75
2023/09/25 10:53:19;;;;;;;1999.90;999.90;;;19.70;99.90;;;;;;5054030;28;20037;-75
2023/09/25 10:55:44;;;;;;;1999.90;999.90;;;19.70;99.90;;;;;;5053886;28;20037;-75
2023/09/25 10:58:14;;;;;;;1999.90;999.90;;;19.90;99.90;;;;;;5054270;28;20514;-76
2023/09/25 11:00:41;;;;;;;1999.90;999.90;;;19.90;99.90;;;;;;5053345;28;20033;-75
2023/09/25 11:03:07;;;;;;;1999.90;999.90;;;20.00;99.90;;;;;;5052495;28;20029;-75
2023/09/25 11:05:43;;;;;;;1999.90;999.90;;;20.20;99.90;;;;;;5053981;28;20045;-75
2023/09/25 11:08:16;;;;;;;1999.90;999.90;;;20.50;99.90;;;;;;5054301;28;20487;-75
2023/09/25 11:10:43;;;;;;;1999.90;999.90;;;20.40;99.40;;;;;;5053907;28;20125;-75
2023/09/25 11:13:09;;;;;;;1999.90;999.90;;;20.30;98.80;;;;;;5054207;28;20160;-75
2023/09/25 11:15:37;;;;;;;1999.90;999.90;;;20.40;99.10;;;;;;5057175;28;20034;-75
2023/09/25 11:18:04;;;;;;;1999.90;999.90;;;20.50;98.90;;;;;;5056939;28;20040;-76
2023/09/25 11:20:32;;;;;;;1999.90;999.90;;;20.60;98.10;;;;;;5057066;28;20033;-76
2023/09/25 11:23:06;;;;;;;1999.90;999.90;;;20.70;97.90;;;;;;5057245;28;20480;-76
2023/09/25 11:25:45;;;;;;;1999.90;999.90;;;20.80;97.90;;;;;;5057055;28;20037;-76
2023/09/25 11:28:16;;;;;;;1999.90;999.90;;;20.90;98.40;;;;;;5057327;28;20036;-76
2023/09/25 11:30:45;;;;;;;1999.90;999.90;;;21.00;97.60;;;;;;5056748;28;20041;-76
2023/09/25 11:33:12;;;;;;;1999.90;999.90;;;21.00;99.00;;;;;;5057025;28;20033;-76
2023/09/25 11:35:38;;;;;;;1999.90;999.90;;;21.10;98.20;;;;;;5056965;28;20025;-77
2023/09/25 11:38:23;;;;;;;1999.90;999.90;;;21.00;98.70;;;;;;5056924;28;20029;-76
2023/09/25 11:40:55;;;;;;;1999.90;999.90;;;21.10;98.80;;;;;;5057166;28;20106;-76
2023/09/25 11:43:23;;;;;;;1999.90;999.90;;;21.30;97.80;;;;;;5057053;28;20053;-76
2023/09/25 11:45:49;;;;;;;1999.90;999.90;;;21.50;97.20;;;;;;5054985;28;20033;-76
2023/09/25 11:48:18;;;;;;;1999.90;999.90;;;21.30;95.90;;;;;;5055263;28;20030;-76
2023/09/25 11:50:44;;;;;;;1999.90;999.90;;;21.20;96.90;;;;;;5056526;28;20030;-76
2023/09/25 11:53:10;;;;;;;1999.90;999.90;;;21.40;96.20;;;;;;5056850;28;20036;-76
2023/09/25 11:55:36;;;;;;;1999.90;999.90;;;21.60;95.60;;;;;;5056749;28;20037;-76
2023/09/25 11:58:07;;;;;;;1999.90;999.90;;;21.70;96.10;;;;;;5056380;28;20065;-76
2023/09/25 12:00:32;;;;;;;1999.90;999.90;;;21.80;95.00;;;;;;5056182;28;20038;-76
2023/09/25 12:02:58;;;;;;;1999.90;999.90;;;21.90;96.10;;;;;;5056521;28;20475;-76
2023/09/25 12:05:24;;;;;;;1999.90;999.90;;;22.00;95.20;;;;;;5056530;28;20475;-77